Time;durP1;ratioP1;P1;durP2;ratioP2;P2;SDS_P1;SDS_P2;PMS_P1;PMS_P2;Temp;Humidity;BMP_temperature;BMP_pressure;BME280_temperature;BME280_humidity;BME280_pressure;Samples;Min_cycle;Max_cycle;Signal;HPM_P1;HPM_P2
2022/05/04 00:06:52;;;;;;;6.87;3.33;;;;;;;6.12;92.18;100019.36;1551209;90;21246;-78
2022/05/04 00:10:06;;;;;;;4.60;2.55;;;;;;;6.08;92.19;100022.03;1687018;85;21266;-79
2022/05/04 00:13:15;;;;;;;3.70;2.60;;;;;;;6.04;92.25;100020.63;1687093;85;21217;-79
2022/05/04 00:16:21;;;;;;;6.60;4.62;;;;;;;5.98;92.34;100026.18;1686579;85;21229;-78
2022/05/04 00:19:27;;;;;;;10.78;5.53;;;;;;;5.97;92.43;100018.17;1687182;85;21220;-79
2022/05/04 00:22:33;;;;;;;8.48;5.47;;;;;;;5.93;92.51;100017.64;1685913;85;21771;-78
2022/05/04 00:25:39;;;;;;;9.75;4.60;;;;;;;5.89;92.45;100023.84;1688077;85;21162;-79
2022/05/04 00:28:45;;;;;;;14.23;4.05;;;;;;;5.85;92.48;100022.95;1687111;85;21213;-79
2022/05/04 00:31:50;;;;;;;26.93;15.35;;;;;;;5.80;92.60;100023.41;1685991;85;21799;-79
2022/05/04 00:34:56;;;;;;;21.27;11.48;;;;;;;5.74;92.90;100019.95;1687068;85;21193;-79
2022/05/04 00:38:02;;;;;;;9.25;5.70;;;;;;;5.72;93.14;100019.23;1687043;85;21200;-79
2022/05/04 00:41:08;;;;;;;10.30;3.95;;;;;;;5.66;93.31;100016.28;1686272;85;21242;-78
2022/05/04 00:44:14;;;;;;;8.35;3.52;;;;;;;5.61;93.62;100018.09;1687134;85;21823;-79
2022/05/04 00:47:21;;;;;;;8.83;4.15;;;;;;;5.60;94.05;100006.91;1686320;85;21269;-79
2022/05/04 00:50:26;;;;;;;6.40;3.90;;;;;;;5.62;94.40;100008.95;1687048;85;21190;-78
2022/05/04 00:53:31;;;;;;;9.70;4.67;;;;;;;5.63;94.55;100013.36;1686989;85;21205;-79
2022/05/04 00:56:38;;;;;;;13.45;6.12;;;;;;;5.64;94.59;100019.13;1685507;85;21225;-79
2022/05/04 00:59:45;;;;;;;8.25;5.20;;;;;;;5.62;94.56;100008.95;1685703;85;21217;-78
2022/05/04 01:02:52;;;;;;;16.42;5.67;;;;;;;5.59;94.54;99997.88;1686584;85;21249;-78
2022/05/04 01:05:58;;;;;;;12.70;6.35;;;;;;;5.59;94.57;100003.81;1686853;85;21226;-79
2022/05/04 01:09:05;;;;;;;11.70;5.50;;;;;;;5.57;94.57;100003.13;1690762;84;21740;-78
2022/05/04 01:12:12;;;;;;;4.58;3.35;;;;;;;5.52;94.54;100005.44;1647731;87;21212;-79
2022/05/04 01:15:19;;;;;;;8.33;3.75;;;;;;;5.45;94.65;99997.03;1699411;84;21776;-79
2022/05/04 01:18:25;;;;;;;6.08;3.37;;;;;;;5.44;94.88;99997.19;1699191;84;21237;-79
2022/05/04 01:21:31;;;;;;;8.23;4.40;;;;;;;5.42;94.98;100001.93;1699218;84;21840;-79
2022/05/04 01:24:37;;;;;;;8.73;4.75;;;;;;;5.40;95.05;99996.63;1699679;84;21268;-79
2022/05/04 01:27:43;;;;;;;6.22;4.40;;;;;;;5.38;95.08;99998.15;1699655;84;21193;-79
2022/05/04 01:30:50;;;;;;;8.20;4.08;;;;;;;5.34;95.00;99999.45;1699576;84;21201;-79
2022/05/04 01:33:57;;;;;;;8.28;3.75;;;;;;;5.32;95.09;99995.20;1698292;84;21818;-79
2022/05/04 01:37:03;;;;;;;4.00;3.12;;;;;;;5.30;95.31;99993.13;1699453;84;21205;-79
2022/05/04 01:40:10;;;;;;;8.03;3.08;;;;;;;5.27;95.37;99991.58;1699433;84;21248;-79
2022/05/04 01:43:16;;;;;;;6.28;3.02;;;;;;;5.25;95.40;99990.01;1698321;84;21280;-78
2022/05/04 01:46:22;;;;;;;7.47;3.00;;;;;;;5.22;95.42;99984.88;1698178;84;21197;-79
2022/05/04 01:49:28;;;;;;;6.40;3.20;;;;;;;5.18;95.63;99987.56;1698337;84;21840;-79
2022/05/04 01:52:34;;;;;;;5.75;3.47;;;;;;;5.13;95.91;99986.66;1698284;84;21209;-78
2022/05/04 01:55:40;;;;;;;9.25;3.60;;;;;;;5.12;96.31;99983.05;1698405;84;21193;-79
2022/05/04 01:58:45;;;;;;;8.98;3.72;;;;;;;5.13;96.76;99990.72;1699536;84;21185;-79
2022/05/04 02:01:51;;;;;;;9.58;4.25;;;;;;;5.18;97.09;99987.56;1699340;84;21253;-78
2022/05/04 02:04:58;;;;;;;6.90;4.15;;;;;;;5.23;97.12;99996.09;1699537;84;21195;-78
2022/05/04 02:08:03;;;;;;;5.45;3.70;;;;;;;5.23;96.93;99993.38;1697326;84;21282;-79
2022/05/04 02:11:09;;;;;;;9.70;3.20;;;;;;;5.24;96.81;99990.52;1694357;84;21202;-79
2022/05/04 02:14:17;;;;;;;3.83;3.10;;;;;;;5.24;96.72;99995.94;1693911;84;21266;-78
2022/05/04 02:17:23;;;;;;;3.72;2.72;;;;;;;5.24;96.68;99997.30;1693884;84;21203;-79
2022/05/04 02:20:30;;;;;;;4.60;2.77;;;;;;;5.25;96.67;99989.50;1694032;84;21211;-79
2022/05/04 02:23:35;;;;;;;8.08;3.20;;;;;;;5.27;96.56;99987.98;1693237;84;21230;-79
2022/05/04 02:26:41;;;;;;;3.75;2.98;;;;;;;5.25;96.34;99985.44;1694321;84;21203;-78
2022/05/04 02:29:47;;;;;;;4.40;3.08;;;;;;;5.26;96.21;99989.00;1694353;84;21199;-79
2022/05/04 02:32:53;;;;;;;5.20;2.90;;;;;;;5.23;96.20;99990.17;1693826;84;21828;-78
2022/05/04 02:39:22;;;;;;;5.53;3.10;;;;;;;5.37;96.65;99995.59;1694209;84;21907;-79
2022/05/04 02:42:28;;;;;;;3.85;2.55;;;;;;;5.53;96.85;99997.64;1694208;84;21238;-79
2022/05/04 02:45:35;;;;;;;7.10;3.70;;;;;;;5.72;96.96;99995.31;1694284;84;21199;-79
2022/05/04 02:48:41;;;;;;;6.12;2.90;;;;;;;5.91;96.68;99995.17;1694073;84;21270;-79
2022/05/04 02:51:47;;;;;;;5.67;2.75;;;;;;;6.09;96.15;99997.43;1694331;84;21227;-78
2022/05/04 02:54:54;;;;;;;2.60;2.40;;;;;;;6.29;95.52;100004.05;1694346;84;21210;-79
2022/05/04 02:58:00;;;;;;;4.80;2.75;;;;;;;6.53;94.99;100004.77;1694405;84;21183;-79
2022/05/04 03:04:47;;;;;;;5.10;2.58;;;;;;;7.10;92.96;100015.52;1693504;84;21234;-79
2022/05/04 03:07:52;;;;;;;6.62;2.55;;;;;;;7.39;91.42;100017.05;1694377;84;21198;-79
2022/05/04 03:14:23;;;;;;;6.12;2.42;;;;;;;7.82;88.85;100018.75;1681355;85;21212;-79
2022/05/04 03:17:28;;;;;;;5.90;2.60;;;;;;;7.96;87.71;100021.85;1681125;84;21192;-79
2022/05/04 03:20:34;;;;;;;4.72;2.72;;;;;;;8.05;86.76;100022.22;1681323;85;21232;-79
2022/05/04 03:23:40;;;;;;;6.00;2.30;;;;;;;8.05;86.14;100021.70;1681684;85;21705;-79
2022/05/04 03:26:46;;;;;;;8.63;2.98;;;;;;;8.09;85.88;100016.27;1682471;85;21207;-79
2022/05/04 03:29:51;;;;;;;3.80;2.00;;;;;;;8.23;85.98;100021.53;1682448;85;21206;-79
2022/05/04 03:32:57;;;;;;;8.10;2.00;;;;;;;8.52;85.53;100017.53;1682348;85;21232;-79
2022/05/04 03:36:02;;;;;;;6.40;2.12;;;;;;;8.86;84.81;100022.80;1681124;85;21247;-79
2022/05/04 03:39:02;;;;;;;3.25;2.27;;;;;;;9.20;83.59;100018.45;1682269;85;21224;-79
2022/05/04 03:41:53;;;;;;;2.40;2.00;;;;;;;9.54;82.65;100021.41;1681084;85;21247;-78
2022/05/04 03:44:59;;;;;;;3.08;2.30;;;;;;;9.78;81.79;100028.13;1681110;85;21778;-79
2022/05/04 03:48:07;;;;;;;6.22;2.20;;;;;;;9.96;80.79;100031.45;1682755;85;21216;-79
2022/05/04 03:51:06;;;;;;;4.62;1.87;;;;;;;10.14;80.07;100031.70;1680912;85;21243;-79
2022/05/04 03:54:00;;;;;;;4.90;2.30;;;;;;;10.28;79.40;100026.86;1681937;85;22500;-79
2022/05/04 03:56:46;;;;;;;3.58;1.85;;;;;;;10.32;79.05;100027.36;1681337;85;21256;-79
2022/05/04 03:59:53;;;;;;;3.47;2.00;;;;;;;10.31;78.95;100027.88;1681382;85;21220;-79
2022/05/04 04:02:58;;;;;;;8.70;2.02;;;;;;;10.30;79.18;100023.94;1682383;85;21220;-79
2022/05/04 04:06:03;;;;;;;5.90;2.30;;;;;;;10.32;79.98;100018.64;1681340;85;21248;-79
2022/05/04 04:09:02;;;;;;;5.12;2.08;;;;;;;10.41;79.96;100019.43;1682378;85;21212;-79
2022/05/04 04:12:08;;;;;;;8.60;2.40;;;;;;;10.49;79.05;100009.29;1653385;87;21224;-79
2022/05/04 04:15:14;;;;;;;5.25;2.62;;;;;;;10.59;78.67;100015.02;1651593;87;21204;-79
2022/05/04 04:18:12;;;;;;;7.85;2.27;;;;;;;10.79;78.65;100011.25;1653042;87;21799;-79
2022/05/04 04:24:43;;;;;;;5.72;1.92;;;;;;;11.27;77.45;100014.01;1652791;87;22572;-79
2022/05/04 04:27:50;;;;;;;4.17;2.08;;;;;;;11.47;76.69;100013.77;1653343;87;21225;-79
2022/05/04 04:30:56;;;;;;;5.55;1.77;;;;;;;11.71;75.92;100013.98;1653390;87;21213;-79
2022/05/04 04:34:03;;;;;;;3.17;2.00;;;;;;;11.98;74.87;100017.94;1653350;87;21276;-79
2022/05/04 04:37:10;;;;;;;3.02;1.98;;;;;;;12.34;73.95;100009.39;1651650;87;21239;-79
2022/05/04 04:40:17;;;;;;;4.00;1.72;;;;;;;12.70;72.87;100006.55;1652866;87;21890;-80
2022/05/04 04:43:22;;;;;;;3.70;2.12;;;;;;;13.00;71.03;100002.59;1653211;87;21196;-79
2022/05/04 04:46:29;;;;;;;4.47;2.25;;;;;;;13.27;69.63;99997.34;1653513;87;21197;-79
2022/05/04 04:49:36;;;;;;;8.60;2.30;;;;;;;13.41;68.26;99996.37;1653436;87;21201;-78
2022/05/04 04:52:42;;;;;;;4.62;2.35;;;;;;;13.42;66.81;99989.81;1653307;87;21243;-79
2022/05/04 04:55:52;;;;;;;11.68;4.17;;;;;;;13.50;67.01;99989.66;1652369;87;21677;-79
2022/05/04 04:58:59;;;;;;;6.15;3.35;;;;;;;13.69;65.93;99985.31;1652044;87;21204;-79
2022/05/04 05:01:58;;;;;;;7.22;4.00;;;;;;;13.97;65.86;99981.59;1653489;87;21331;-79
2022/05/04 05:05:04;;;;;;;6.87;3.75;;;;;;;14.21;64.11;99984.30;1652711;87;21255;-79
2022/05/04 05:08:11;;;;;;;6.65;3.95;;;;;;;14.40;63.13;99981.30;1653438;87;21212;-80
2022/05/04 05:11:17;;;;;;;7.20;3.90;;;;;;;14.57;62.40;99976.56;1668103;84;21877;-79
2022/05/04 05:17:47;;;;;;;9.80;3.90;;;;;;;14.87;60.89;99980.30;1701745;84;21738;-79
2022/05/04 05:20:53;;;;;;;13.75;5.00;;;;;;;15.06;60.19;99980.81;1701593;84;21206;-79
2022/05/04 05:23:59;;;;;;;14.03;5.20;;;;;;;15.18;58.35;99984.29;1701653;84;21369;-79
2022/05/04 05:27:06;;;;;;;10.48;4.62;;;;;;;15.19;58.00;99979.93;1702482;84;21199;-79
2022/05/04 05:30:13;;;;;;;8.05;4.62;;;;;;;15.28;58.56;99984.16;1701970;84;21502;-79
2022/05/04 05:33:19;;;;;;;11.18;4.72;;;;;;;15.36;57.74;99976.73;1698654;84;21175;-79
2022/05/04 05:36:24;;;;;;;9.13;5.85;;;;;;;15.41;56.88;99972.80;1700552;84;21784;-80
2022/05/04 05:39:30;;;;;;;18.17;6.25;;;;;;;15.44;56.38;99974.60;1701964;84;21254;-79
2022/05/04 05:42:36;;;;;;;12.75;6.03;;;;;;;15.54;56.61;99979.13;1702011;84;21198;-79
2022/05/04 05:45:42;;;;;;;19.73;6.10;;;;;;;15.65;56.26;99980.38;1701485;84;21222;-80
2022/05/04 05:48:47;;;;;;;19.57;5.90;;;;;;;15.77;56.38;99975.90;1702428;84;21262;-80
2022/05/04 05:51:57;;;;;;;12.68;6.25;;;;;;;15.83;55.87;99980.53;1712452;82;21595;-79
2022/05/04 05:55:03;;;;;;;12.55;5.58;;;;;;;15.77;56.35;99977.27;1730927;83;21207;-80
2022/05/04 05:58:12;;;;;;;15.25;5.45;;;;;;;15.81;56.79;99975.78;1730983;83;21194;-81
2022/05/04 06:01:18;;;;;;;13.45;5.47;;;;;;;15.93;56.95;99970.95;1746701;81;21191;-81
2022/05/04 06:04:24;;;;;;;10.15;4.70;;;;;;;16.13;57.43;99979.11;1745070;81;21761;-81
2022/05/04 06:07:29;;;;;;;18.00;4.72;;;;;;;16.26;57.77;99979.04;1720745;83;21224;-81
2022/05/04 06:10:35;;;;;;;12.15;4.60;;;;;;;16.42;57.68;99965.23;1684126;84;21185;-81
2022/05/04 06:13:41;;;;;;;15.95;5.58;;;;;;;16.62;57.58;99972.86;1712723;83;21237;-80
2022/05/04 06:16:49;;;;;;;13.08;5.85;;;;;;;16.60;55.92;99968.92;1700450;83;21169;-80
2022/05/04 06:19:56;;;;;;;17.02;5.97;;;;;;;16.53;55.31;99972.28;1679565;85;21213;-78
2022/05/04 06:23:03;;;;;;;14.35;6.00;;;;;;;16.54;54.62;99963.46;1631946;85;21223;-79
2022/05/04 06:26:09;;;;;;;8.75;5.70;;;;;;;16.44;52.57;99962.58;1667196;86;21829;-79
2022/05/04 06:29:14;;;;;;;10.88;5.62;;;;;;;16.37;52.43;99968.66;1680856;85;21787;-80
2022/05/04 06:35:43;;;;;;;13.40;6.00;;;;;;;16.31;53.14;99961.28;1734293;82;21729;-80
2022/05/04 06:38:48;;;;;;;8.68;5.60;;;;;;;16.31;53.96;99962.66;1711597;84;21241;-79
2022/05/04 06:41:55;;;;;;;13.40;5.45;;;;;;;16.44;54.41;99961.73;1711724;84;21245;-79
2022/05/04 06:45:01;;;;;;;10.05;5.45;;;;;;;16.51;54.25;99953.70;1706125;83;21192;-79
2022/05/04 06:48:07;;;;;;;15.95;5.50;;;;;;;16.49;53.52;99961.37;1718577;83;21224;-79
2022/05/04 06:51:13;;;;;;;18.23;5.62;;;;;;;16.53;55.62;99955.72;1717736;83;21205;-79
2022/05/04 06:54:18;;;;;;;14.13;5.40;;;;;;;16.72;55.06;99954.44;1735615;82;21760;-79
2022/05/04 06:57:24;;;;;;;14.47;5.92;;;;;;;16.98;55.40;99943.14;1749443;82;21303;-79
2022/05/04 07:00:28;;;;;;;15.28;5.65;;;;;;;17.16;54.34;99947.02;1743038;82;21168;-79
2022/05/04 07:03:35;;;;;;;15.55;5.85;;;;;;;17.31;54.00;99950.25;1656947;83;21197;-80
2022/05/04 07:06:40;;;;;;;9.63;5.17;;;;;;;17.44;53.88;99945.96;1702246;83;21228;-80
2022/05/04 07:09:46;;;;;;;13.15;5.70;;;;;;;17.54;53.68;99957.33;1721473;82;21190;-79
2022/05/04 07:13:01;;;;;;;11.78;5.65;;;;;;;17.63;53.80;99953.17;1682464;84;21246;-80
2022/05/04 07:16:08;;;;;;;15.90;5.87;;;;;;;17.78;53.36;99958.34;1691517;84;21211;-79
2022/05/04 07:19:14;;;;;;;8.93;4.65;;;;;;;18.01;53.23;99949.32;1708126;84;21754;-79
2022/05/04 07:22:21;;;;;;;11.80;4.97;;;;;;;18.26;51.71;99960.82;1697796;84;21198;-79
2022/05/04 07:25:27;;;;;;;7.95;4.83;;;;;;;18.39;51.32;99957.83;1707725;84;21908;-79
2022/05/04 07:28:33;;;;;;;13.72;4.80;;;;;;;18.52;50.88;99954.86;1699514;84;21178;-79
2022/05/04 07:31:39;;;;;;;12.45;4.95;;;;;;;18.62;49.06;99957.89;1697990;84;21187;-79
2022/05/04 07:34:45;;;;;;;8.60;4.40;;;;;;;18.69;48.85;99959.77;1707948;84;21226;-79
2022/05/04 07:37:51;;;;;;;13.35;4.80;;;;;;;18.75;47.79;99962.95;1697175;84;21905;-79
2022/05/04 07:44:20;;;;;;;10.93;4.50;;;;;;;18.90;49.24;99954.48;1698748;84;21218;-79
2022/05/04 07:47:26;;;;;;;10.03;4.10;;;;;;;19.02;48.60;99952.27;1707888;84;21772;-79
2022/05/04 07:50:32;;;;;;;14.10;3.80;;;;;;;19.10;47.44;99948.61;1698360;84;21242;-79
2022/05/04 07:53:41;;;;;;;8.75;4.83;;;;;;;19.18;46.75;99942.38;1697748;83;21279;-82
2022/05/04 07:56:52;;;;;;;6.30;3.90;;;;;;;19.25;47.19;99941.73;1707845;84;21789;-81
2022/05/04 08:06:48;;;;;;;11.83;4.35;;;;;;;19.41;46.61;99942.36;1697876;84;21199;-80
2022/05/04 08:09:54;;;;;;;8.08;3.52;;;;;;;19.43;46.40;99947.11;1692952;84;21236;-80
2022/05/04 08:13:00;;;;;;;9.45;3.25;;;;;;;19.47;46.12;99941.38;1681453;85;21211;-80
2022/05/04 08:16:07;;;;;;;5.30;3.15;;;;;;;19.51;45.68;99934.27;1701356;82;21228;-80
2022/05/04 08:19:15;;;;;;;14.25;3.52;;;;;;;19.49;44.46;99936.45;1652126;87;21221;-80
2022/05/04 08:22:30;;;;;;;9.30;3.83;;;;;;;19.47;44.23;99932.22;1700318;84;21224;-80
2022/05/04 08:25:37;;;;;;;6.37;3.20;;;;;;;19.47;45.16;99931.67;1652526;86;21244;-80
2022/05/04 08:28:43;;;;;;;13.05;3.45;;;;;;;19.48;44.10;99929.73;1676543;82;21841;-79
2022/05/04 08:31:48;;;;;;;9.63;3.70;;;;;;;19.46;43.83;99925.84;1642890;87;21208;-79
2022/05/04 08:34:55;;;;;;;10.23;3.42;;;;;;;19.48;44.47;99931.13;1700779;84;21176;-79
2022/05/04 08:38:00;;;;;;;7.40;4.03;;;;;;;19.50;44.67;99931.20;1661786;86;21211;-79
2022/05/04 08:41:06;;;;;;;6.17;3.12;;;;;;;19.46;44.22;99924.45;1700293;84;21205;-80
2022/05/04 08:44:13;;;;;;;8.65;3.27;;;;;;;19.42;44.89;99930.17;1651507;86;21239;-79
2022/05/04 08:47:20;;;;;;;5.42;3.22;;;;;;;19.43;43.95;99930.47;1683242;85;21223;-79
2022/05/04 08:50:26;;;;;;;7.10;2.83;;;;;;;19.40;43.37;99929.05;1683466;84;21214;-80
2022/05/04 08:56:20;;;;;;;6.20;3.70;;;;;;;19.32;44.43;99929.95;1856665;76;22233;-78
2022/05/04 08:59:28;;;;;;;9.58;3.37;;;;;;;19.30;45.20;99929.37;1750644;82;21766;-80
2022/05/04 09:02:34;;;;;;;9.83;3.60;;;;;;;19.34;45.15;99925.03;1767223;81;21180;-80
2022/05/04 09:05:40;;;;;;;11.03;4.20;;;;;;;19.37;44.46;99925.36;1749622;82;21192;-80
2022/05/04 09:09:14;;;;;;;9.10;3.70;;;;;;;19.39;44.94;99919.05;1740110;81;21240;-80
2022/05/04 09:12:23;;;;;;;10.28;4.10;;;;;;;19.42;44.68;99921.86;1633319;86;21169;-79
2022/05/04 09:15:40;;;;;;;8.80;3.50;;;;;;;19.45;45.32;99913.06;1721280;82;21805;-79
2022/05/04 09:18:47;;;;;;;10.38;4.12;;;;;;;19.49;44.01;99918.42;1736519;82;21205;-80
2022/05/04 09:21:53;;;;;;;9.40;3.67;;;;;;;19.37;44.80;99910.66;1736564;82;21784;-80
2022/05/04 09:24:58;;;;;;;11.00;3.67;;;;;;;19.34;45.26;99906.45;1745329;81;21850;-80
2022/05/04 09:28:28;;;;;;;7.00;4.20;;;;;;;19.29;44.85;99910.50;1755814;81;21189;-80
2022/05/04 09:31:38;;;;;;;9.90;3.75;;;;;;;19.22;45.49;99912.55;1742406;82;21754;-79
2022/05/04 09:34:43;;;;;;;6.62;3.87;;;;;;;19.20;43.21;99913.89;1741629;82;21249;-79
2022/05/04 09:44:57;;;;;;;9.05;3.10;;;;;;;19.38;41.88;99897.08;1729265;83;21200;-81
2022/05/04 09:48:02;;;;;;;7.67;3.67;;;;;;;19.14;41.97;99899.88;1731799;81;21806;-81
2022/05/04 09:51:14;;;;;;;10.28;3.65;;;;;;;18.96;42.57;99894.50;1764069;81;21235;-80
2022/05/04 09:54:27;;;;;;;12.03;4.08;;;;;;;18.93;44.36;99900.52;1756439;81;21313;-81
2022/05/04 09:57:32;;;;;;;7.83;3.62;;;;;;;19.04;43.49;99896.88;1742586;82;21241;-81
2022/05/04 10:00:37;;;;;;;19.48;4.12;;;;;;;19.21;44.48;99889.23;1739954;82;21185;-81
2022/05/04 10:03:44;;;;;;;10.72;3.85;;;;;;;19.31;43.42;99881.14;1741684;81;21228;-81
2022/05/04 10:06:49;;;;;;;12.47;3.90;;;;;;;19.40;43.70;99881.06;1761831;81;21193;-81
2022/05/04 10:09:55;;;;;;;10.08;3.55;;;;;;;19.50;44.20;99887.37;1748618;81;21197;-81
2022/05/04 10:13:02;;;;;;;7.30;3.50;;;;;;;19.53;43.17;99881.34;1738291;82;21260;-81
2022/05/04 10:16:10;;;;;;;7.85;3.10;;;;;;;19.48;42.80;99881.20;1739355;82;21816;-79
2022/05/04 10:19:16;;;;;;;13.32;4.15;;;;;;;19.46;42.73;99878.69;1740173;82;21236;-79
2022/05/04 10:22:29;;;;;;;14.23;3.98;;;;;;;19.55;44.47;99877.22;1740117;82;21205;-80
2022/05/04 10:25:34;;;;;;;12.13;4.85;;;;;;;19.72;44.19;99866.78;1739218;82;21258;-79
2022/05/04 10:32:16;;;;;;;8.88;3.10;;;;;;;19.84;42.47;99859.23;1740407;82;21766;-80
2022/05/04 10:35:29;;;;;;;8.60;3.45;;;;;;;19.80;41.53;99859.42;1740293;82;21187;-80
2022/05/04 10:38:39;;;;;;;16.27;3.77;;;;;;;19.71;43.33;99862.29;1740954;81;21191;-79
2022/05/04 10:41:45;;;;;;;11.38;3.85;;;;;;;19.75;42.75;99862.94;1740122;82;21337;-80
2022/05/04 10:44:59;;;;;;;9.45;3.37;;;;;;;19.77;41.50;99860.78;1741168;82;21246;-80
2022/05/04 10:48:29;;;;;;;9.05;3.15;;;;;;;19.84;40.44;99853.68;1740317;82;21206;-80
2022/05/04 10:51:38;;;;;;;6.17;3.40;;;;;;;19.87;41.19;99853.19;1740776;82;21175;-80
2022/05/04 10:54:43;;;;;;;8.35;3.47;;;;;;;19.89;42.37;99851.00;1740478;81;21202;-80
2022/05/04 10:57:49;;;;;;;12.07;3.15;;;;;;;19.95;42.28;99853.31;1696301;82;21258;-80
2022/05/04 11:01:13;;;;;;;13.98;3.08;;;;;;;19.99;40.39;99841.47;1734303;82;21814;-79
2022/05/04 11:04:30;;;;;;;15.93;3.08;;;;;;;19.97;40.02;99842.28;1736271;82;21195;-79
2022/05/04 11:07:38;;;;;;;9.85;2.80;;;;;;;19.98;41.66;99838.41;1735052;82;21206;-80
2022/05/04 11:10:45;;;;;;;10.00;3.00;;;;;;;20.05;40.63;99834.94;1698494;82;21229;-80
2022/05/04 11:13:52;;;;;;;11.03;4.03;;;;;;;20.09;39.98;99829.19;1706895;84;21188;-79
2022/05/04 11:16:59;;;;;;;9.08;3.62;;;;;;;20.13;40.05;99812.30;1717305;83;21226;-79
2022/05/04 11:20:06;;;;;;;8.83;3.42;;;;;;;20.20;42.95;99813.54;1706663;84;21180;-79
2022/05/04 11:23:14;;;;;;;8.40;3.50;;;;;;;20.13;40.60;99799.80;1718394;83;21195;-79
2022/05/04 11:26:36;;;;;;;11.12;3.83;;;;;;;19.89;41.26;99814.37;1697938;84;21232;-79
2022/05/04 11:29:41;;;;;;;7.33;3.65;;;;;;;19.57;40.73;99803.45;1717582;83;22450;-79
2022/05/04 11:32:48;;;;;;;5.90;2.87;;;;;;;19.41;42.33;99802.31;1707015;84;21177;-79
2022/05/04 11:36:02;;;;;;;10.08;3.20;;;;;;;19.42;42.98;99799.83;1717926;83;21266;-80
2022/05/04 11:39:10;;;;;;;10.80;2.77;;;;;;;19.51;42.45;99796.97;1705576;82;21217;-79
2022/05/04 11:42:15;;;;;;;6.12;2.67;;;;;;;19.59;41.09;99791.58;1706477;84;21789;-79
2022/05/04 11:45:16;;;;;;;6.05;3.17;;;;;;;19.63;41.33;99783.09;1719490;83;21186;-80
2022/05/04 11:48:26;;;;;;;19.05;3.67;;;;;;;19.70;42.35;99781.55;1718470;83;21511;-79
2022/05/04 11:51:29;;;;;;;6.15;2.90;;;;;;;19.73;40.69;99781.05;1701149;83;21194;-79
2022/05/04 11:54:36;;;;;;;6.15;2.60;;;;;;;19.81;41.33;99782.05;1728331;82;21191;-80
2022/05/04 11:57:49;;;;;;;8.38;2.52;;;;;;;19.94;40.97;99773.92;1726471;82;21219;-79
2022/05/04 12:00:55;;;;;;;9.00;2.75;;;;;;;20.06;40.60;99769.99;1726034;83;21192;-79
2022/05/04 12:04:01;;;;;;;4.47;2.20;;;;;;;20.16;41.00;99763.77;1726289;83;21203;-80
2022/05/04 12:07:07;;;;;;;9.03;2.33;;;;;;;20.23;39.82;99770.53;1726090;83;21199;-80
2022/05/04 12:10:14;;;;;;;9.80;2.95;;;;;;;20.28;40.07;99763.66;1726325;83;21196;-80
2022/05/04 12:13:19;;;;;;;5.22;2.37;;;;;;;20.32;40.78;99771.78;1725340;83;21715;-80
2022/05/04 12:16:24;;;;;;;4.08;2.50;;;;;;;20.32;39.34;99771.78;1710450;83;21263;-80
2022/05/04 12:19:30;;;;;;;9.25;2.30;;;;;;;20.30;39.64;99772.59;1726278;83;21188;-80
2022/05/04 12:22:36;;;;;;;8.00;2.77;;;;;;;20.26;39.72;99771.42;1726235;83;21188;-80
2022/05/04 12:25:41;;;;;;;4.60;2.37;;;;;;;20.20;39.08;99771.89;1708399;83;21203;-80
2022/05/04 12:35:18;;;;;;;4.58;2.30;;;;;;;20.26;39.77;99763.09;1772177;81;21357;-80
2022/05/04 12:38:25;;;;;;;12.23;2.45;;;;;;;20.29;39.83;99755.66;1800003;79;21248;-80
2022/05/04 12:41:33;;;;;;;6.28;2.40;;;;;;;20.29;40.07;99757.05;1731702;83;21205;-80
2022/05/04 12:44:42;;;;;;;8.88;2.45;;;;;;;20.32;40.38;99753.73;1782712;79;21209;-79
2022/05/04 12:47:48;;;;;;;4.35;2.08;;;;;;;20.34;40.18;99751.56;1732086;83;21261;-79
2022/05/04 12:50:54;;;;;;;5.42;2.72;;;;;;;20.33;40.42;99749.34;1783578;79;21485;-79
2022/05/04 12:54:02;;;;;;;9.70;2.40;;;;;;;20.32;40.50;99747.63;1801117;79;21177;-79
2022/05/04 12:57:08;;;;;;;7.05;2.30;;;;;;;20.28;40.42;99752.04;1801094;79;21169;-80
2022/05/04 13:00:17;;;;;;;3.52;2.17;;;;;;;20.20;40.73;99747.45;1805836;79;21276;-79
2022/05/04 13:03:24;;;;;;;9.60;2.47;;;;;;;20.01;40.92;99746.31;1809565;79;21228;-79
2022/05/04 13:06:29;;;;;;;11.33;2.47;;;;;;;19.82;41.54;99746.27;1809246;79;21193;-80
2022/05/04 13:09:35;;;;;;;4.53;2.20;;;;;;;19.76;41.81;99755.56;1739283;82;21193;-80
2022/05/04 13:12:42;;;;;;;6.00;2.30;;;;;;;19.66;41.66;99754.28;1740656;82;21366;-79
2022/05/04 13:15:51;;;;;;;5.92;2.37;;;;;;;19.56;42.57;99751.30;1740451;82;21820;-80
2022/05/04 13:18:56;;;;;;;5.67;2.10;;;;;;;19.46;42.49;99746.95;1755988;81;21192;-78
2022/05/04 13:22:02;;;;;;;8.45;2.80;;;;;;;19.36;43.48;99741.21;1738358;81;21226;-80
2022/05/04 13:25:08;;;;;;;6.67;2.27;;;;;;;19.29;42.76;99741.89;1744424;81;21213;-79
2022/05/04 13:28:14;;;;;;;6.12;3.02;;;;;;;19.20;42.93;99740.08;1746470;81;21183;-79
2022/05/04 13:31:20;;;;;;;8.30;3.10;;;;;;;19.10;43.93;99747.64;1733974;83;21206;-79
2022/05/04 13:34:26;;;;;;;5.83;2.42;;;;;;;19.00;44.10;99746.56;1733914;83;21199;-79
2022/05/04 13:37:35;;;;;;;5.17;2.30;;;;;;;18.94;43.90;99755.33;1734216;83;21191;-79
2022/05/04 13:40:40;;;;;;;11.22;2.42;;;;;;;18.89;43.87;99751.90;1750104;81;21213;-79
2022/05/04 13:43:45;;;;;;;8.78;2.72;;;;;;;18.86;44.16;99746.00;1742606;81;21741;-80
2022/05/04 13:46:50;;;;;;;7.85;3.10;;;;;;;18.85;44.06;99754.85;1742862;81;21160;-80
2022/05/04 13:49:56;;;;;;;7.47;2.70;;;;;;;18.84;44.18;99752.34;1752408;81;21740;-80
2022/05/04 13:53:15;;;;;;;14.68;3.52;;;;;;;18.81;44.69;99757.81;1757628;81;21209;-79
2022/05/04 13:56:20;;;;;;;12.60;2.50;;;;;;;18.83;43.76;99758.97;1738916;82;21767;-80
2022/05/04 13:59:26;;;;;;;4.10;2.85;;;;;;;18.79;44.23;99762.77;1745570;81;21292;-80
2022/05/04 14:02:31;;;;;;;12.73;2.98;;;;;;;18.78;44.12;99756.94;1708710;84;21244;-79
2022/05/04 14:05:38;;;;;;;7.35;3.15;;;;;;;18.78;44.39;99756.94;1685015;85;21736;-80
2022/05/04 14:08:45;;;;;;;5.42;2.67;;;;;;;18.76;44.53;99759.09;1709468;84;21240;-80
2022/05/04 14:11:51;;;;;;;5.72;2.83;;;;;;;18.78;45.06;99765.79;1684952;85;22263;-80
2022/05/04 14:15:04;;;;;;;7.33;2.33;;;;;;;18.72;45.11;99760.66;1709358;84;21280;-80
2022/05/04 14:18:09;;;;;;;5.90;2.25;;;;;;;18.70;45.01;99762.00;1685093;85;21237;-80
2022/05/04 14:21:15;;;;;;;7.40;2.30;;;;;;;18.63;45.28;99760.69;1709423;84;21220;-79
2022/05/04 14:24:20;;;;;;;9.55;2.30;;;;;;;18.55;44.93;99762.47;1684541;85;21201;-80
2022/05/04 14:27:25;;;;;;;9.05;2.75;;;;;;;18.40;45.06;99772.64;1709688;84;21173;-80
2022/05/04 14:30:31;;;;;;;9.33;2.27;;;;;;;18.28;45.36;99780.09;1683747;84;21276;-80
2022/05/04 14:33:36;;;;;;;11.00;2.62;;;;;;;18.19;45.31;99801.73;1716881;82;21200;-79
2022/05/04 14:36:44;;;;;;;6.47;2.50;;;;;;;17.98;49.16;99810.08;1704116;83;21884;-79
2022/05/04 14:39:50;;;;;;;4.40;1.98;;;;;;;17.60;50.77;99807.64;1720869;83;21229;-80
2022/05/04 14:42:58;;;;;;;3.80;1.92;;;;;;;17.28;51.71;99793.18;1730530;82;21196;-80
2022/05/04 14:46:04;;;;;;;4.53;2.40;;;;;;;17.11;52.67;99787.43;1707211;83;21308;-80
2022/05/04 14:49:09;;;;;;;4.83;2.30;;;;;;;17.01;52.95;99788.52;1713867;83;21241;-80
2022/05/04 14:52:15;;;;;;;5.33;2.10;;;;;;;16.98;53.51;99782.91;1739244;82;21181;-80
2022/05/04 14:55:14;;;;;;;2.65;1.85;;;;;;;16.94;54.22;99794.14;1713464;83;21244;-81
2022/05/04 14:58:13;;;;;;;6.55;1.90;;;;;;;16.88;54.83;99799.17;1739743;82;21232;-81
2022/05/04 15:01:19;;;;;;;7.05;2.00;;;;;;;16.81;55.40;99798.42;1714134;82;21250;-80
2022/05/04 15:07:50;;;;;;;7.92;2.00;;;;;;;16.80;56.47;99797.58;1712326;84;21823;-80
2022/05/04 15:10:57;;;;;;;5.97;2.20;;;;;;;16.80;55.92;99792.60;1711432;84;21735;-81
2022/05/04 15:14:03;;;;;;;4.97;2.00;;;;;;;16.79;55.39;99793.65;1712741;84;21746;-79
2022/05/04 15:17:09;;;;;;;3.80;1.72;;;;;;;16.81;55.72;99782.69;1711597;84;21283;-79
2022/05/04 15:20:15;;;;;;;3.52;1.72;;;;;;;16.86;56.29;99777.86;1712211;84;21263;-79
2022/05/04 15:23:21;;;;;;;5.28;2.02;;;;;;;16.88;56.07;99774.86;1712701;84;21195;-79
2022/05/04 15:26:30;;;;;;;5.80;2.20;;;;;;;16.86;56.08;99768.19;1711410;84;21247;-79
2022/05/04 15:29:35;;;;;;;4.83;2.17;;;;;;;16.77;55.77;99777.31;1711342;84;21188;-79
2022/05/04 15:32:41;;;;;;;2.67;1.67;;;;;;;16.69;56.04;99772.59;1711303;84;21195;-79
2022/05/04 15:35:46;;;;;;;2.62;1.90;;;;;;;16.61;56.46;99772.38;1712613;84;21236;-79